Time;durP1;ratioP1;P1;durP2;ratioP2;P2;SDS_P1;SDS_P2;PMS_P1;PMS_P2;Temp;Humidity;BMP_temperature;BMP_pressure;BME280_temperature;BME280_humidity;BME280_pressure;Samples;Min_cycle;Max_cycle;Signal;HPM_P1;HPM_P2
2022/10/11 00:00:19;;;;;;;14.37;7.83;;;12.10;99.90;;;;;;5029074;28;20175;-61
2022/10/11 00:02:45;;;;;;;12.27;7.97;;;12.10;99.90;;;;;;5028667;28;20184;-60
2022/10/11 00:05:10;;;;;;;17.07;8.60;;;12.10;99.90;;;;;;5028993;28;20183;-61
2022/10/11 00:07:39;;;;;;;16.27;7.73;;;12.10;99.90;;;;;;5029403;28;20215;-61
2022/10/11 00:10:06;;;;;;;15.23;8.70;;;12.10;99.90;;;;;;5024916;28;20662;-60
2022/10/11 00:12:33;;;;;;;11.97;7.03;;;12.10;99.90;;;;;;5029060;28;20429;-61
2022/10/11 00:14:58;;;;;;;11.23;7.50;;;12.10;99.90;;;;;;5026863;28;20430;-60
2022/10/11 00:17:24;;;;;;;13.50;7.70;;;12.10;99.90;;;;;;5030164;28;20462;-60
2022/10/11 00:19:50;;;;;;;14.17;7.20;;;12.10;99.90;;;;;;5027859;28;20772;-62
2022/10/11 00:22:16;;;;;;;14.67;8.03;;;12.10;99.90;;;;;;5028222;28;20294;-61
2022/10/11 00:24:42;;;;;;;18.93;9.13;;;12.00;99.90;;;;;;5026856;28;20585;-62
2022/10/11 00:27:07;;;;;;;12.07;7.27;;;12.00;99.90;;;;;;5029528;28;20176;-61
2022/10/11 00:29:33;;;;;;;15.47;8.43;;;12.00;99.90;;;;;;5029091;28;20179;-61
2022/10/11 00:31:59;;;;;;;10.13;7.33;;;11.90;99.90;;;;;;5026855;28;20176;-62
2022/10/11 00:34:25;;;;;;;14.70;7.90;;;12.00;99.90;;;;;;5028393;28;20176;-61
2022/10/11 00:36:50;;;;;;;16.50;8.80;;;11.90;99.90;;;;;;5029181;28;20609;-61
2022/10/11 00:39:16;;;;;;;15.00;8.53;;;11.90;99.90;;;;;;5026020;28;20647;-61
2022/10/11 00:41:42;;;;;;;13.20;7.37;;;11.80;99.90;;;;;;5027365;28;20211;-62
2022/10/11 00:44:19;;;;;;;12.53;8.30;;;11.90;99.90;;;;;;5025179;28;20205;-61
2022/10/11 00:46:59;;;;;;;14.13;7.60;;;11.80;99.90;;;;;;5027553;28;20519;-61
2022/10/11 00:49:44;;;;;;;29.53;9.70;;;11.90;99.90;;;;;;5028677;28;20458;-61
2022/10/11 00:52:32;;;;;;;13.43;8.70;;;11.80;99.90;;;;;;5027303;28;20453;-61
2022/10/11 00:55:12;;;;;;;21.17;8.00;;;11.80;99.90;;;;;;5007596;28;20426;-61
2022/10/11 00:57:42;;;;;;;16.97;8.90;;;11.80;99.90;;;;;;5029471;28;21078;-63
2022/10/11 01:00:10;;;;;;;21.40;8.47;;;11.80;99.90;;;;;;5028569;28;20434;-62
2022/10/11 01:02:38;;;;;;;13.60;8.47;;;11.80;99.90;;;;;;5025606;28;20480;-61
2022/10/11 01:05:05;;;;;;;12.50;8.27;;;11.80;99.90;;;;;;5028612;28;20426;-61
2022/10/11 01:07:32;;;;;;;14.03;8.60;;;11.70;99.90;;;;;;5028011;28;20450;-61
2022/10/11 01:09:57;;;;;;;13.80;8.47;;;11.80;99.90;;;;;;5023246;28;20434;-61
2022/10/11 01:12:28;;;;;;;23.90;9.17;;;11.80;99.90;;;;;;5022831;28;20457;-61
2022/10/11 01:14:59;;;;;;;12.93;7.77;;;11.80;99.90;;;;;;5024159;28;20235;-61
2022/10/11 01:17:34;;;;;;;14.60;7.83;;;11.80;99.90;;;;;;5029052;28;20738;-61
2022/10/11 01:20:21;;;;;;;14.03;8.33;;;11.80;99.90;;;;;;5027973;28;20953;-61
2022/10/11 01:22:55;;;;;;;12.50;7.80;;;11.80;99.90;;;;;;5021671;28;20892;-61
2022/10/11 01:25:27;;;;;;;12.00;8.30;;;11.80;99.90;;;;;;5026987;28;21011;-66
2022/10/11 01:27:59;;;;;;;18.70;9.20;;;11.80;99.90;;;;;;5029674;28;20483;-61
2022/10/11 01:30:26;;;;;;;14.50;7.90;;;11.80;99.90;;;;;;5025463;28;20936;-62
2022/10/11 01:33:04;;;;;;;12.43;7.30;;;11.80;99.90;;;;;;5029750;28;20427;-61
2022/10/11 01:35:50;;;;;;;14.80;8.10;;;11.80;99.90;;;;;;5030108;28;20448;-61
2022/10/11 01:38:33;;;;;;;13.73;8.60;;;11.80;99.90;;;;;;5029044;28;20438;-61
2022/10/11 01:41:04;;;;;;;13.67;7.57;;;11.80;99.90;;;;;;5027330;28;20450;-61
2022/10/11 01:43:31;;;;;;;19.33;8.50;;;11.80;99.90;;;;;;5033572;28;20939;-61
2022/10/11 01:45:59;;;;;;;16.27;7.63;;;11.80;99.90;;;;;;5028928;28;20441;-62
2022/10/11 01:48:24;;;;;;;13.50;7.97;;;11.80;99.90;;;;;;5030337;28;20450;-62
2022/10/11 01:50:56;;;;;;;14.47;8.43;;;11.70;99.90;;;;;;5032492;28;20445;-61
2022/10/11 01:53:57;;;;;;;15.97;8.20;;;11.80;99.90;;;;;;5041641;28;20647;-61
2022/10/11 01:56:44;;;;;;;15.90;8.60;;;11.80;99.90;;;;;;5029773;28;20487;-61
2022/10/11 01:59:47;;;;;;;15.10;8.40;;;11.80;99.90;;;;;;5019116;28;20453;-62
2022/10/11 02:02:24;;;;;;;11.07;8.07;;;11.70;99.90;;;;;;5027024;28;20446;-61
2022/10/11 02:05:10;;;;;;;12.00;8.27;;;11.70;99.90;;;;;;5019547;28;20521;-61
2022/10/11 02:07:46;;;;;;;13.10;8.50;;;11.70;99.90;;;;;;5031089;28;20549;-61
2022/10/11 02:10:22;;;;;;;20.80;8.87;;;11.70;99.90;;;;;;5028902;28;20421;-61
2022/10/11 02:12:59;;;;;;;15.30;8.47;;;11.70;99.90;;;;;;5025935;28;20426;-61
2022/10/11 02:15:29;;;;;;;18.50;8.63;;;11.60;99.90;;;;;;5025847;28;20838;-61
2022/10/11 02:17:58;;;;;;;14.27;8.67;;;11.60;99.90;;;;;;5032901;28;20450;-62
2022/10/11 02:20:26;;;;;;;12.47;8.30;;;11.50;99.90;;;;;;5030384;28;20466;-61
2022/10/11 02:22:58;;;;;;;14.37;8.13;;;11.50;99.90;;;;;;5030799;28;21007;-61
2022/10/11 02:25:27;;;;;;;12.23;8.20;;;11.50;99.90;;;;;;5028264;28;20434;-61
2022/10/11 02:27:56;;;;;;;13.07;8.13;;;11.40;99.90;;;;;;5030842;28;20465;-61
2022/10/11 02:30:22;;;;;;;13.23;8.30;;;11.40;99.90;;;;;;5031423;28;20465;-61
2022/10/11 02:32:49;;;;;;;18.90;9.20;;;11.30;99.90;;;;;;5030344;28;20880;-61
2022/10/11 02:35:16;;;;;;;14.00;8.60;;;11.30;99.90;;;;;;5031355;28;20446;-61
2022/10/11 02:38:00;;;;;;;24.30;8.93;;;11.30;99.90;;;;;;5030467;28;20555;-61
2022/10/11 02:40:32;;;;;;;15.00;9.00;;;11.30;99.90;;;;;;5025225;28;20420;-61
2022/10/11 02:43:05;;;;;;;20.83;9.40;;;11.20;99.90;;;;;;5022419;28;20442;-60
2022/10/11 02:45:53;;;;;;;24.43;9.20;;;11.20;99.90;;;;;;5031337;28;20520;-61
2022/10/11 02:48:19;;;;;;;15.03;8.27;;;11.20;99.90;;;;;;5030907;28;20465;-62
2022/10/11 02:50:44;;;;;;;21.97;9.40;;;11.20;99.90;;;;;;5023319;28;20924;-61
2022/10/11 02:53:10;;;;;;;12.70;8.03;;;11.20;99.90;;;;;;5029463;28;20184;-61
2022/10/11 02:55:36;;;;;;;18.30;9.43;;;11.20;99.90;;;;;;5016331;28;20179;-61
2022/10/11 02:58:02;;;;;;;16.73;9.13;;;11.20;99.90;;;;;;5030594;28;20632;-61
2022/10/11 03:00:28;;;;;;;16.57;8.23;;;11.20;99.90;;;;;;5024278;28;20812;-61
2022/10/11 03:02:53;;;;;;;17.67;9.30;;;11.20;99.90;;;;;;5024283;28;20191;-61
2022/10/11 03:05:19;;;;;;;18.70;9.83;;;11.20;99.90;;;;;;5030031;28;20655;-61
2022/10/11 03:07:45;;;;;;;16.67;8.90;;;11.20;99.90;;;;;;5028761;28;20211;-61
2022/10/11 03:10:10;;;;;;;13.10;8.27;;;11.20;99.90;;;;;;5028287;28;20233;-61
2022/10/11 03:12:36;;;;;;;17.43;8.60;;;11.30;99.90;;;;;;5030069;28;20188;-61
2022/10/11 03:15:02;;;;;;;13.53;7.47;;;11.30;99.90;;;;;;5028214;28;20518;-61
2022/10/11 03:17:28;;;;;;;19.23;9.00;;;11.30;99.90;;;;;;5029510;28;20651;-61
2022/10/11 03:19:54;;;;;;;11.20;7.87;;;11.30;99.90;;;;;;5026093;28;20465;-61
2022/10/11 03:22:20;;;;;;;26.83;9.33;;;11.30;99.90;;;;;;5031532;28;20199;-61
2022/10/11 03:24:45;;;;;;;16.03;8.33;;;11.30;99.90;;;;;;5030189;28;20438;-61
2022/10/11 03:27:11;;;;;;;19.50;8.73;;;11.30;99.90;;;;;;5030017;28;20454;-61
2022/10/11 03:29:37;;;;;;;17.33;9.60;;;11.30;99.90;;;;;;5020399;28;20188;-61
2022/10/11 03:32:03;;;;;;;26.50;10.17;;;11.30;99.90;;;;;;5026210;28;20215;-61
2022/10/11 03:34:28;;;;;;;30.13;10.87;;;11.30;99.90;;;;;;5027311;28;20617;-61
2022/10/11 03:36:54;;;;;;;27.70;9.97;;;11.30;99.90;;;;;;5029778;28;20522;-62
2022/10/11 03:39:21;;;;;;;19.60;8.80;;;11.30;99.90;;;;;;5029528;28;20180;-62
2022/10/11 03:41:47;;;;;;;22.60;10.33;;;11.30;99.90;;;;;;5034933;28;20221;-61
2022/10/11 03:44:12;;;;;;;26.90;9.70;;;11.30;99.90;;;;;;5031562;28;20434;-61
2022/10/11 03:46:38;;;;;;;23.23;9.93;;;11.30;99.90;;;;;;5030122;28;20183;-61
2022/10/11 03:49:03;;;;;;;20.10;9.57;;;11.30;99.90;;;;;;5029752;28;20196;-61
2022/10/11 03:51:30;;;;;;;17.40;8.93;;;11.30;99.90;;;;;;5028751;28;20670;-61
2022/10/11 03:53:56;;;;;;;18.30;9.90;;;11.30;99.90;;;;;;5025944;28;20191;-61
2022/10/11 03:56:21;;;;;;;14.80;8.90;;;11.30;99.90;;;;;;5018163;28;20444;-61
2022/10/11 03:58:47;;;;;;;23.07;9.07;;;11.30;99.90;;;;;;5022370;28;20279;-61
2022/10/11 04:01:12;;;;;;;19.47;9.70;;;11.20;99.90;;;;;;5021894;28;20211;-61
2022/10/11 04:03:38;;;;;;;14.23;9.10;;;11.20;99.90;;;;;;5022989;28;20229;-61
2022/10/11 04:06:04;;;;;;;20.10;9.50;;;11.20;99.90;;;;;;5019690;28;20180;-61
2022/10/11 04:08:30;;;;;;;16.67;8.40;;;11.30;99.90;;;;;;5019902;28;20230;-60
2022/10/11 04:10:55;;;;;;;19.20;9.37;;;11.20;99.90;;;;;;5023762;28;20445;-59
2022/10/11 04:13:21;;;;;;;14.80;9.40;;;11.20;99.90;;;;;;5027057;28;20253;-59
2022/10/11 04:15:46;;;;;;;21.60;9.80;;;11.20;99.90;;;;;;5025560;28;20187;-61
2022/10/11 04:18:12;;;;;;;24.27;13.23;;;11.20;99.90;;;;;;5024934;28;20886;-60
2022/10/11 04:20:38;;;;;;;26.43;16.00;;;11.20;99.90;;;;;;5028377;28;20213;-60
2022/10/11 04:23:03;;;;;;;19.00;12.10;;;11.20;99.90;;;;;;5028668;28;20217;-61
2022/10/11 04:25:29;;;;;;;22.60;10.97;;;11.20;99.90;;;;;;5017911;28;20776;-60
2022/10/11 04:27:54;;;;;;;22.97;9.77;;;11.20;99.90;;;;;;5020406;28;20199;-61
2022/10/11 04:30:20;;;;;;;18.50;8.87;;;11.20;99.90;;;;;;5028533;28;20182;-60
2022/10/11 04:32:46;;;;;;;24.67;8.50;;;11.20;99.90;;;;;;5025778;28;21042;-60
2022/10/11 04:35:12;;;;;;;15.17;7.57;;;11.10;99.90;;;;;;5016121;28;20266;-60
2022/10/11 04:37:38;;;;;;;19.57;9.00;;;11.10;99.90;;;;;;5016834;28;20204;-62
2022/10/11 04:40:05;;;;;;;18.47;8.67;;;11.10;99.90;;;;;;5016003;28;20203;-61
2022/10/11 04:42:31;;;;;;;17.93;8.57;;;11.10;99.90;;;;;;5012361;28;20203;-60
2022/10/11 04:44:57;;;;;;;38.43;9.17;;;11.10;99.90;;;;;;5019900;28;20861;-61
2022/10/11 04:47:22;;;;;;;20.10;9.37;;;11.10;99.90;;;;;;5023249;28;20233;-60
2022/10/11 04:49:48;;;;;;;15.73;8.27;;;11.10;99.90;;;;;;5025759;28;20626;-60
2022/10/11 04:52:13;;;;;;;12.20;7.80;;;11.10;99.90;;;;;;5026453;28;20270;-60
2022/10/11 04:54:39;;;;;;;21.60;8.77;;;11.10;99.90;;;;;;5030328;28;20183;-61
2022/10/11 04:57:05;;;;;;;18.87;8.83;;;11.10;99.90;;;;;;5028967;28;20171;-61
2022/10/11 04:59:31;;;;;;;19.13;8.27;;;11.00;99.90;;;;;;5011733;28;20272;-60
2022/10/11 05:01:56;;;;;;;11.67;8.20;;;11.10;99.90;;;;;;5020664;28;20675;-60
2022/10/11 05:04:22;;;;;;;26.40;8.10;;;11.00;99.90;;;;;;5024593;28;20275;-60
2022/10/11 05:06:48;;;;;;;21.77;8.63;;;11.00;99.90;;;;;;5016252;28;20183;-60
2022/10/11 05:09:13;;;;;;;20.43;8.30;;;11.10;99.90;;;;;;5026107;28;20196;-61
2022/10/11 05:11:39;;;;;;;16.83;8.67;;;11.10;99.90;;;;;;5025520;28;20183;-60
2022/10/11 05:14:04;;;;;;;14.80;7.70;;;11.10;99.90;;;;;;5021231;28;20666;-60
2022/10/11 05:16:30;;;;;;;10.80;7.50;;;11.10;99.90;;;;;;5023051;28;20207;-61
2022/10/11 05:18:56;;;;;;;15.10;7.50;;;11.10;99.90;;;;;;5030815;28;20211;-60
2022/10/11 05:21:25;;;;;;;8.87;7.33;;;11.10;99.90;;;;;;5033994;28;20269;-60
2022/10/11 05:23:54;;;;;;;11.90;6.57;;;11.10;99.90;;;;;;5030919;28;20451;-60
2022/10/11 05:26:20;;;;;;;12.10;6.90;;;11.10;99.90;;;;;;5030845;28;20480;-61
2022/10/11 05:28:46;;;;;;;20.80;7.63;;;11.10;99.90;;;;;;5032460;28;20820;-60
2022/10/11 05:31:12;;;;;;;14.10;6.80;;;11.10;99.90;;;;;;5031046;28;20979;-60
2022/10/11 05:33:38;;;;;;;13.07;7.33;;;11.10;99.90;;;;;;5029065;28;20188;-61
2022/10/11 05:36:05;;;;;;;12.17;6.80;;;11.20;99.90;;;;;;5030365;28;20430;-61
2022/10/11 05:38:31;;;;;;;9.00;6.30;;;11.20;99.90;;;;;;5034877;28;20195;-61
2022/10/11 05:41:01;;;;;;;18.63;6.47;;;11.20;99.90;;;;;;5032740;28;20466;-61
2022/10/11 05:43:27;;;;;;;11.37;7.23;;;11.20;99.90;;;;;;5037596;28;20212;-59
2022/10/11 05:45:53;;;;;;;15.00;8.10;;;11.20;99.90;;;;;;5032669;28;21158;-60
2022/10/11 05:48:19;;;;;;;16.50;7.07;;;11.20;99.90;;;;;;5029313;28;20514;-60
2022/10/11 05:50:44;;;;;;;13.60;7.47;;;11.20;99.90;;;;;;5029314;28;20208;-60
2022/10/11 05:53:10;;;;;;;11.50;7.13;;;11.20;99.90;;;;;;5033578;28;20692;-60
2022/10/11 05:55:40;;;;;;;12.90;6.40;;;11.20;99.90;;;;;;5033552;28;20708;-60
2022/10/11 05:58:06;;;;;;;13.13;6.50;;;11.30;99.90;;;;;;5033826;28;20596;-59
2022/10/11 06:00:35;;;;;;;7.63;6.20;;;11.20;99.90;;;;;;5011732;28;20443;-59
2022/10/11 06:03:01;;;;;;;16.20;8.20;;;11.20;99.90;;;;;;5033067;28;20783;-60
2022/10/11 06:05:26;;;;;;;12.13;7.30;;;11.20;99.90;;;;;;5031812;28;20438;-59
2022/10/11 06:07:52;;;;;;;16.73;8.03;;;11.20;99.90;;;;;;5033742;28;20187;-59
2022/10/11 06:10:18;;;;;;;19.70;7.53;;;11.20;99.90;;;;;;5025523;28;20222;-60
2022/10/11 06:12:43;;;;;;;11.33;6.63;;;11.20;99.90;;;;;;5026237;28;20210;-59
2022/10/11 06:15:10;;;;;;;14.03;6.97;;;11.30;99.90;;;;;;5029374;28;20472;-61
2022/10/11 06:17:36;;;;;;;14.97;7.37;;;11.30;99.90;;;;;;5030058;28;20220;-59
2022/10/11 06:20:02;;;;;;;18.70;8.63;;;11.20;99.90;;;;;;5032046;28;20434;-60
2022/10/11 06:22:28;;;;;;;12.07;7.67;;;11.30;99.90;;;;;;5032578;28;20465;-60
2022/10/11 06:24:54;;;;;;;10.90;6.60;;;11.30;99.90;;;;;;5030082;28;20443;-59
2022/10/11 06:27:19;;;;;;;21.97;7.77;;;11.30;99.90;;;;;;5029307;28;20223;-60
2022/10/11 06:29:45;;;;;;;18.63;8.00;;;11.30;99.90;;;;;;5031603;28;20635;-60
2022/10/11 06:32:12;;;;;;;14.47;7.37;;;11.30;99.90;;;;;;5032093;28;20666;-60
2022/10/11 06:34:38;;;;;;;13.90;7.23;;;11.30;99.90;;;;;;5016800;28;20191;-60
2022/10/11 06:37:03;;;;;;;12.00;7.00;;;11.30;99.90;;;;;;5032381;28;20814;-60
2022/10/11 06:39:29;;;;;;;8.83;6.73;;;11.30;99.90;;;;;;5032744;28;20241;-60
2022/10/11 06:41:55;;;;;;;16.53;7.80;;;11.30;99.90;;;;;;5023617;28;20292;-60
2022/10/11 06:44:20;;;;;;;13.60;7.00;;;11.30;99.90;;;;;;5029318;28;20528;-59
2022/10/11 06:46:46;;;;;;;10.37;6.67;;;11.40;99.90;;;;;;5028538;28;20737;-60
2022/10/11 06:49:12;;;;;;;14.77;6.50;;;11.40;99.90;;;;;;5032232;28;20219;-60
2022/10/11 06:51:37;;;;;;;9.63;6.43;;;11.40;99.90;;;;;;5022183;28;20211;-60
2022/10/11 06:54:04;;;;;;;13.23;6.20;;;11.40;99.90;;;;;;5032050;28;20554;-61
2022/10/11 06:56:30;;;;;;;11.07;6.73;;;11.50;99.90;;;;;;5032677;28;20592;-60
2022/10/11 06:58:58;;;;;;;14.47;7.77;;;11.50;99.90;;;;;;5024446;28;20457;-60
2022/10/11 07:01:24;;;;;;;7.80;6.10;;;11.50;99.90;;;;;;5027712;28;21038;-60
2022/10/11 07:03:51;;;;;;;11.80;6.53;;;11.50;99.90;;;;;;5026850;28;20459;-60
2022/10/11 07:06:23;;;;;;;12.63;6.40;;;11.50;99.90;;;;;;5031825;28;20429;-61
2022/10/11 07:08:49;;;;;;;13.17;6.90;;;11.60;99.90;;;;;;5012632;28;20455;-60
2022/10/11 07:11:17;;;;;;;9.67;5.83;;;11.60;99.90;;;;;;5021566;28;20572;-60
2022/10/11 07:13:48;;;;;;;16.13;6.63;;;11.60;99.90;;;;;;5020929;28;20244;-60
2022/10/11 07:16:14;;;;;;;18.33;7.87;;;11.70;99.90;;;;;;5027448;28;20924;-61
2022/10/11 07:18:40;;;;;;;11.47;7.10;;;11.70;99.90;;;;;;5024678;28;20470;-60
2022/10/11 07:21:09;;;;;;;10.50;7.10;;;11.80;99.90;;;;;;5031287;28;20207;-60
2022/10/11 07:23:35;;;;;;;15.77;6.93;;;11.90;99.90;;;;;;5030161;28;20655;-60
2022/10/11 07:26:01;;;;;;;10.17;6.77;;;11.90;99.90;;;;;;5028275;28;20460;-61
2022/10/11 07:28:30;;;;;;;18.90;6.70;;;12.00;99.90;;;;;;5029007;28;20298;-61
2022/10/11 07:30:57;;;;;;;10.63;6.73;;;12.10;99.90;;;;;;5030837;28;20430;-61
2022/10/11 07:33:23;;;;;;;14.43;6.60;;;12.10;99.90;;;;;;5031637;28;20410;-61
2022/10/11 07:35:49;;;;;;;11.97;7.20;;;12.20;99.90;;;;;;5027588;28;20521;-60
2022/10/11 07:38:15;;;;;;;14.50;7.30;;;12.20;99.90;;;;;;5027789;28;20514;-61
2022/10/11 07:40:45;;;;;;;11.47;7.10;;;12.30;99.90;;;;;;5026695;28;20816;-61
2022/10/11 07:43:12;;;;;;;15.03;7.40;;;12.40;99.90;;;;;;5032992;28;20494;-61
2022/10/11 07:45:38;;;;;;;13.90;7.60;;;12.40;99.90;;;;;;5023204;28;20488;-61
2022/10/11 07:48:04;;;;;;;15.30;7.00;;;12.50;99.90;;;;;;5024736;28;21095;-60
2022/10/11 07:50:30;;;;;;;14.53;7.37;;;12.50;99.90;;;;;;5033760;28;20428;-60
2022/10/11 07:52:56;;;;;;;15.53;6.40;;;12.50;99.90;;;;;;5019802;28;20497;-60
2022/10/11 07:55:21;;;;;;;13.40;6.80;;;12.50;99.90;;;;;;5019236;28;20188;-60
2022/10/11 07:57:47;;;;;;;10.60;7.07;;;12.50;99.90;;;;;;5029878;28;20347;-60
2022/10/11 08:00:13;;;;;;;12.87;6.60;;;12.50;99.90;;;;;;5031444;28;20259;-61
2022/10/11 08:02:38;;;;;;;14.13;7.53;;;12.50;99.90;;;;;;5019415;28;20744;-60
2022/10/11 08:05:04;;;;;;;11.47;6.33;;;12.50;99.90;;;;;;5017108;28;20183;-60
2022/10/11 08:07:30;;;;;;;11.07;6.87;;;12.60;99.90;;;;;;5029894;28;20279;-60
2022/10/11 08:09:56;;;;;;;15.10;7.40;;;12.60;99.90;;;;;;5019047;28;20215;-62
2022/10/11 08:12:21;;;;;;;17.00;8.47;;;12.60;99.90;;;;;;5014943;28;20175;-61
2022/10/11 08:14:47;;;;;;;21.23;9.07;;;12.70;99.90;;;;;;5026581;28;20195;-61
2022/10/11 08:17:13;;;;;;;20.77;9.77;;;12.70;99.90;;;;;;5030005;28;20658;-61
2022/10/11 08:19:39;;;;;;;15.57;7.67;;;12.80;99.90;;;;;;5025243;28;20190;-60
2022/10/11 08:22:04;;;;;;;18.17;7.00;;;12.80;99.90;;;;;;5030498;28;20561;-60
2022/10/11 08:24:30;;;;;;;9.67;8.00;;;12.80;99.90;;;;;;5030056;28;21005;-62
2022/10/11 08:26:56;;;;;;;17.27;8.03;;;12.80;99.90;;;;;;5030527;28;20176;-61
2022/10/11 08:29:21;;;;;;;15.00;6.90;;;12.80;99.90;;;;;;5021877;28;20804;-60
2022/10/11 08:31:47;;;;;;;12.47;7.33;;;12.80;99.90;;;;;;5027324;28;20244;-60
2022/10/11 08:34:13;;;;;;;19.70;8.00;;;12.80;99.90;;;;;;5030396;28;20176;-61
2022/10/11 08:36:39;;;;;;;13.03;7.63;;;12.80;99.90;;;;;;5026190;28;20233;-60
2022/10/11 08:39:05;;;;;;;23.47;9.37;;;12.80;99.90;;;;;;5024704;28;20430;-60
2022/10/11 08:41:46;;;;;;;17.70;8.10;;;12.80;99.90;;;;;;5028373;28;20677;-60
2022/10/11 08:44:45;;;;;;;18.10;7.93;;;12.80;99.90;;;;;;5023526;28;20434;-61
2022/10/11 08:47:11;;;;;;;17.80;6.50;;;12.80;99.90;;;;;;5017349;28;20525;-60
2022/10/11 08:49:37;;;;;;;11.10;6.40;;;12.80;99.90;;;;;;5029732;28;20410;-60
2022/10/11 08:52:23;;;;;;;12.47;7.17;;;12.90;99.90;;;;;;5029025;28;20940;-60
2022/10/11 08:54:52;;;;;;;9.93;6.40;;;12.90;99.90;;;;;;5027622;28;20464;-61
2022/10/11 08:57:24;;;;;;;17.60;7.03;;;12.90;99.90;;;;;;5025737;28;20442;-60
2022/10/11 08:59:57;;;;;;;21.73;6.80;;;13.00;99.90;;;;;;5012696;28;20503;-61
2022/10/11 09:02:41;;;;;;;14.10;7.40;;;13.00;99.90;;;;;;5010365;28;20477;-60
2022/10/11 09:05:15;;;;;;;18.37;8.53;;;13.10;99.90;;;;;;5024836;28;20438;-60
2022/10/11 09:08:08;;;;;;;15.03;8.50;;;13.20;99.90;;;;;;5030004;28;20909;-61
2022/10/11 09:10:49;;;;;;;15.13;8.00;;;13.20;99.90;;;;;;5030201;28;20877;-60
2022/10/11 09:13:30;;;;;;;16.43;7.43;;;13.30;99.90;;;;;;5024675;28;20438;-61
2022/10/11 09:16:23;;;;;;;15.30;7.90;;;13.40;99.90;;;;;;5006210;28;20513;-61
2022/10/11 09:19:09;;;;;;;20.20;7.37;;;13.40;99.90;;;;;;5029960;28;20446;-61
2022/10/11 09:21:51;;;;;;;20.17;8.70;;;13.50;99.90;;;;;;5027003;28;20461;-61
2022/10/11 09:24:28;;;;;;;15.17;8.93;;;13.60;99.90;;;;;;5026431;28;20446;-60
2022/10/11 09:27:01;;;;;;;17.53;8.50;;;13.70;99.90;;;;;;5029943;28;20526;-61
2022/10/11 09:29:46;;;;;;;17.27;8.57;;;13.80;99.90;;;;;;5030396;28;20461;-61
2022/10/11 09:32:15;;;;;;;15.93;9.20;;;13.90;99.90;;;;;;5026621;28;20537;-60
2022/10/11 09:34:41;;;;;;;16.20;7.50;;;14.00;99.90;;;;;;5029956;28;20457;-60
2022/10/11 09:37:32;;;;;;;17.13;8.50;;;14.20;99.90;;;;;;5029182;28;20430;-60
2022/10/11 09:40:31;;;;;;;21.43;7.93;;;14.30;99.90;;;;;;5028647;28;20423;-61
2022/10/11 09:42:58;;;;;;;12.53;8.03;;;14.40;99.90;;;;;;5018414;28;20485;-61
2022/10/11 09:45:24;;;;;;;22.10;8.67;;;14.50;99.90;;;;;;5027391;28;21059;-61
2022/10/11 09:47:52;;;;;;;21.83;8.90;;;14.50;99.90;;;;;;5026651;28;20454;-61
2022/10/11 09:50:28;;;;;;;16.37;8.63;;;14.60;99.90;;;;;;5028282;28;20806;-60
2022/10/11 09:52:56;;;;;;;16.33;7.33;;;14.70;99.90;;;;;;5022443;28;20469;-60
2022/10/11 09:55:53;;;;;;;19.80;8.50;;;14.80;99.90;;;;;;5025675;28;20446;-60
2022/10/11 09:58:31;;;;;;;9.87;6.53;;;14.90;99.90;;;;;;5023348;28;20545;-60
2022/10/11 10:01:04;;;;;;;21.17;7.80;;;14.90;99.90;;;;;;5029465;28;20446;-61
2022/10/11 10:03:32;;;;;;;13.10;7.07;;;15.00;99.90;;;;;;5030317;28;20439;-60
2022/10/11 10:06:14;;;;;;;12.07;6.07;;;15.20;99.90;;;;;;5021044;28;20456;-61
2022/10/11 10:08:41;;;;;;;12.53;6.00;;;15.30;99.90;;;;;;5031746;28;20540;-61
2022/10/11 10:11:09;;;;;;;18.40;6.93;;;15.50;99.90;;;;;;5026372;28;20434;-61
2022/10/11 10:13:46;;;;;;;11.43;6.40;;;15.70;99.90;;;;;;5027767;28;20502;-60
2022/10/11 10:16:31;;;;;;;14.17;6.43;;;15.90;99.90;;;;;;5029560;28;20584;-61
2022/10/11 10:19:00;;;;;;;15.33;6.37;;;16.10;99.90;;;;;;5026020;28;20620;-61
2022/10/11 10:21:36;;;;;;;11.03;5.63;;;16.30;99.90;;;;;;5024764;28;20458;-61
2022/10/11 10:24:07;;;;;;;14.83;5.43;;;16.40;99.90;;;;;;5031285;28;20430;-61
2022/10/11 10:26:33;;;;;;;19.87;6.43;;;16.60;99.90;;;;;;5031385;28;20434;-61
2022/10/11 10:29:01;;;;;;;13.87;5.80;;;16.80;99.90;;;;;;5032028;28;20450;-61
2022/10/11 10:31:48;;;;;;;15.57;5.40;;;17.00;99.90;;;;;;5032781;28;20551;-61
2022/10/11 10:34:27;;;;;;;15.30;5.03;;;17.20;99.90;;;;;;5029057;28;20951;-61
2022/10/11 10:36:56;;;;;;;12.67;4.60;;;17.30;99.90;;;;;;5021188;28;20439;-61
2022/10/11 10:39:46;;;;;;;13.87;5.53;;;17.40;99.90;;;;;;5010210;28;21146;-61
2022/10/11 10:42:16;;;;;;;15.30;6.10;;;17.50;99.90;;;;;;5023797;28;20984;-59
2022/10/11 10:44:42;;;;;;;14.97;5.90;;;17.70;99.90;;;;;;5022885;28;20827;-59
2022/10/11 10:47:37;;;;;;;15.07;5.30;;;18.00;99.90;;;;;;5022394;28;20427;-60
2022/10/11 10:50:16;;;;;;;8.57;4.90;;;18.20;99.90;;;;;;5015342;28;20442;-60
2022/10/11 10:53:04;;;;;;;12.00;4.77;;;18.30;99.90;;;;;;5028697;28;20983;-60
2022/10/11 10:55:33;;;;;;;14.10;4.93;;;18.40;99.90;;;;;;5028464;28;20426;-61
2022/10/11 10:58:06;;;;;;;8.87;4.90;;;18.50;99.90;;;;;;5023605;28;20596;-61
2022/10/11 11:01:01;;;;;;;13.90;4.40;;;18.60;99.90;;;;;;5026262;28;20792;-61
2022/10/11 11:03:50;;;;;;;14.27;5.53;;;18.80;99.60;;;;;;5027515;28;20462;-60
2022/10/11 11:06:35;;;;;;;11.60;4.10;;;19.00;96.80;;;;;;5032153;28;20399;-61
2022/10/11 11:09:16;;;;;;;7.60;3.90;;;19.30;95.80;;;;;;5024821;28;20516;-61
2022/10/11 11:11:53;;;;;;;14.97;4.77;;;19.70;93.10;;;;;;5022843;28;20417;-60
2022/10/11 11:14:21;;;;;;;13.33;4.07;;;20.00;90.20;;;;;;5029583;28;20909;-60
2022/10/11 11:16:49;;;;;;;9.23;3.93;;;20.20;81.40;;;;;;5026566;28;20422;-61
2022/10/11 11:19:34;;;;;;;16.53;4.20;;;20.40;78.10;;;;;;5030575;28;20972;-60
2022/10/11 11:22:27;;;;;;;9.10;3.87;;;20.40;77.50;;;;;;5026074;28;20523;-61
2022/10/11 11:25:06;;;;;;;12.40;4.17;;;20.40;77.30;;;;;;5017122;28;20441;-60
2022/10/11 11:27:34;;;;;;;14.40;4.77;;;20.40;77.70;;;;;;5027906;28;20967;-60
2022/10/11 11:30:05;;;;;;;6.80;3.70;;;20.30;76.10;;;;;;5031461;28;20484;-61
2022/10/11 11:33:08;;;;;;;10.60;4.30;;;19.90;78.30;;;;;;5016892;28;20523;-60
2022/10/11 11:35:39;;;;;;;11.80;3.60;;;19.60;81.30;;;;;;5031208;28;20410;-60
2022/10/11 11:38:17;;;;;;;19.40;5.03;;;19.20;84.20;;;;;;5028300;28;20540;-60
2022/10/11 11:40:53;;;;;;;11.07;4.27;;;18.90;88.70;;;;;;5032277;28;20435;-59
2022/10/11 11:43:19;;;;;;;19.03;5.10;;;18.70;90.50;;;;;;5032499;28;20434;-60
2022/10/11 11:45:54;;;;;;;13.93;4.17;;;18.50;92.60;;;;;;5027233;28;20438;-60
2022/10/11 11:48:24;;;;;;;8.40;3.50;;;18.30;94.50;;;;;;5029244;28;20182;-59
2022/10/11 11:50:57;;;;;;;17.83;4.70;;;18.20;94.90;;;;;;5011736;28;20404;-60
2022/10/11 11:53:39;;;;;;;10.50;3.87;;;18.10;95.70;;;;;;5027109;28;20419;-60
2022/10/11 11:56:16;;;;;;;9.67;4.43;;;17.90;96.40;;;;;;5029864;28;20546;-60
2022/10/11 11:59:05;;;;;;;8.83;4.80;;;17.90;97.60;;;;;;5011646;28;20423;-60
2022/10/11 12:01:36;;;;;;;11.77;5.23;;;17.80;99.40;;;;;;5015606;28;20549;-60
2022/10/11 12:04:10;;;;;;;12.27;4.80;;;17.70;99.90;;;;;;5028553;28;20888;-60
2022/10/11 12:06:37;;;;;;;11.60;6.17;;;17.60;99.90;;;;;;5030822;28;20865;-60
2022/10/11 12:09:21;;;;;;;15.93;6.50;;;17.60;99.90;;;;;;5031398;28;20427;-60
2022/10/11 12:11:57;;;;;;;16.70;8.07;;;17.50;99.90;;;;;;5027540;28;20441;-60
2022/10/11 12:14:28;;;;;;;21.10;8.20;;;17.50;99.90;;;;;;5025228;28;20429;-60
2022/10/11 12:17:06;;;;;;;13.30;7.87;;;17.30;99.90;;;;;;5026719;28;20955;-60
2022/10/11 12:19:32;;;;;;;14.60;7.20;;;17.10;99.90;;;;;;5026791;28;20464;-60
2022/10/11 12:22:16;;;;;;;13.80;7.00;;;17.10;99.90;;;;;;5026537;28;21044;-61
2022/10/11 12:24:55;;;;;;;18.53;7.57;;;16.90;99.90;;;;;;5030772;28;20212;-61
2022/10/11 12:27:42;;;;;;;16.83;7.57;;;16.90;99.90;;;;;;5029321;28;20448;-60
2022/10/11 12:30:45;;;;;;;12.37;6.50;;;16.80;99.90;;;;;;5026518;28;20427;-60
2022/10/11 12:33:20;;;;;;;11.80;7.07;;;16.80;99.90;;;;;;5008839;28;20481;-61
2022/10/11 12:35:54;;;;;;;21.13;6.80;;;16.90;99.90;;;;;;5023916;28;20421;-61
2022/10/11 12:38:29;;;;;;;18.73;6.57;;;16.90;99.90;;;;;;5019799;28;20668;-60
2022/10/11 12:40:56;;;;;;;16.33;7.00;;;17.00;99.90;;;;;;5021502;28;20426;-60
2022/10/11 12:43:24;;;;;;;16.77;7.20;;;17.00;99.90;;;;;;5028662;28;20431;-60
2022/10/11 12:45:50;;;;;;;15.17;7.33;;;17.00;99.90;;;;;;5025558;28;20473;-60
2022/10/11 12:49:12;;;;;;;12.20;6.10;;;16.90;99.90;;;;;;5021225;28;20482;-61
2022/10/11 12:51:52;;;;;;;17.10;6.10;;;16.80;99.90;;;;;;4945568;29;20457;-60
2022/10/11 12:54:47;;;;;;;15.03;5.80;;;16.80;99.90;;;;;;4946806;29;20430;-60
2022/10/11 12:57:40;;;;;;;11.93;5.43;;;16.90;99.90;;;;;;5003591;28;20419;-60